sensor_id;sensor_type;location;lat;lon;timestamp;P1;durP1;ratioP1;P2;durP2;ratioP2
61869;SDS011;47810;42.264;23.826;2022-08-19T00:01:58;8.13;;;5.10;;
61869;SDS011;47810;42.264;23.826;2022-08-19T00:04:26;7.82;;;5.38;;
61869;SDS011;47810;42.264;23.826;2022-08-19T00:06:54;7.30;;;4.95;;
61869;SDS011;47810;42.264;23.826;2022-08-19T00:09:22;9.13;;;5.05;;
61869;SDS011;47810;42.264;23.826;2022-08-19T00:11:50;7.95;;;5.15;;
61869;SDS011;47810;42.264;23.826;2022-08-19T00:14:16;8.13;;;5.28;;
61869;SDS011;47810;42.264;23.826;2022-08-19T00:16:48;8.65;;;5.45;;
61869;SDS011;47810;42.264;23.826;2022-08-19T00:21:41;8.00;;;5.20;;
61869;SDS011;47810;42.264;23.826;2022-08-19T00:24:11;7.45;;;5.03;;
61869;SDS011;47810;42.264;23.826;2022-08-19T00:26:42;9.38;;;5.60;;
61869;SDS011;47810;42.264;23.826;2022-08-19T00:29:13;7.95;;;5.35;;
61869;SDS011;47810;42.264;23.826;2022-08-19T00:36:41;7.63;;;5.22;;
61869;SDS011;47810;42.264;23.826;2022-08-19T00:41:42;9.45;;;5.60;;
61869;SDS011;47810;42.264;23.826;2022-08-19T00:44:19;7.85;;;5.38;;
61869;SDS011;47810;42.264;23.826;2022-08-19T00:46:50;8.43;;;5.68;;
61869;SDS011;47810;42.264;23.826;2022-08-19T00:52:14;12.95;;;6.93;;
61869;SDS011;47810;42.264;23.826;2022-08-19T00:54:43;8.73;;;5.65;;
61869;SDS011;47810;42.264;23.826;2022-08-19T00:57:15;8.60;;;5.63;;
61869;SDS011;47810;42.264;23.826;2022-08-19T01:02:20;8.35;;;5.70;;
61869;SDS011;47810;42.264;23.826;2022-08-19T01:04:47;9.80;;;6.05;;
61869;SDS011;47810;42.264;23.826;2022-08-19T01:07:16;11.50;;;5.80;;
61869;SDS011;47810;42.264;23.826;2022-08-19T01:12:11;9.18;;;5.43;;
61869;SDS011;47810;42.264;23.826;2022-08-19T01:14:40;10.80;;;5.75;;
61869;SDS011;47810;42.264;23.826;2022-08-19T01:17:08;8.13;;;5.32;;
61869;SDS011;47810;42.264;23.826;2022-08-19T01:19:39;8.45;;;5.57;;
61869;SDS011;47810;42.264;23.826;2022-08-19T01:24:36;7.35;;;5.03;;
61869;SDS011;47810;42.264;23.826;2022-08-19T01:27:05;9.85;;;6.07;;
61869;SDS011;47810;42.264;23.826;2022-08-19T01:29:32;7.18;;;4.80;;
61869;SDS011;47810;42.264;23.826;2022-08-19T01:32:01;7.82;;;4.78;;
61869;SDS011;47810;42.264;23.826;2022-08-19T01:36:59;7.72;;;5.25;;
61869;SDS011;47810;42.264;23.826;2022-08-19T01:39:38;8.30;;;5.45;;
61869;SDS011;47810;42.264;23.826;2022-08-19T01:42:06;10.57;;;5.68;;
61869;SDS011;47810;42.264;23.826;2022-08-19T01:44:41;8.75;;;5.20;;
61869;SDS011;47810;42.264;23.826;2022-08-19T01:47:08;8.23;;;5.75;;
61869;SDS011;47810;42.264;23.826;2022-08-19T01:49:43;8.65;;;5.63;;
61869;SDS011;47810;42.264;23.826;2022-08-19T01:52:11;9.13;;;6.15;;
61869;SDS011;47810;42.264;23.826;2022-08-19T01:54:39;8.27;;;5.47;;
61869;SDS011;47810;42.264;23.826;2022-08-19T01:57:07;12.50;;;6.28;;
61869;SDS011;47810;42.264;23.826;2022-08-19T01:59:36;9.70;;;5.80;;
61869;SDS011;47810;42.264;23.826;2022-08-19T02:02:04;10.80;;;6.18;;
61869;SDS011;47810;42.264;23.826;2022-08-19T02:04:32;9.15;;;5.78;;
61869;SDS011;47810;42.264;23.826;2022-08-19T02:07:00;9.10;;;6.15;;
61869;SDS011;47810;42.264;23.826;2022-08-19T02:09:27;9.80;;;5.50;;
61869;SDS011;47810;42.264;23.826;2022-08-19T02:11:53;9.05;;;5.70;;
61869;SDS011;47810;42.264;23.826;2022-08-19T02:14:19;8.80;;;5.53;;
61869;SDS011;47810;42.264;23.826;2022-08-19T02:16:47;9.43;;;5.75;;
61869;SDS011;47810;42.264;23.826;2022-08-19T02:19:14;10.55;;;5.90;;
61869;SDS011;47810;42.264;23.826;2022-08-19T02:21:41;9.20;;;5.50;;
61869;SDS011;47810;42.264;23.826;2022-08-19T02:26:38;8.75;;;5.95;;
61869;SDS011;47810;42.264;23.826;2022-08-19T02:29:06;9.80;;;6.13;;
61869;SDS011;47810;42.264;23.826;2022-08-19T02:31:33;10.32;;;6.05;;
61869;SDS011;47810;42.264;23.826;2022-08-19T02:33:58;8.60;;;5.85;;
61869;SDS011;47810;42.264;23.826;2022-08-19T02:36:26;8.07;;;5.60;;
61869;SDS011;47810;42.264;23.826;2022-08-19T02:38:54;9.27;;;5.90;;
61869;SDS011;47810;42.264;23.826;2022-08-19T02:41:21;8.23;;;5.75;;
61869;SDS011;47810;42.264;23.826;2022-08-19T02:43:53;8.20;;;5.72;;
61869;SDS011;47810;42.264;23.826;2022-08-19T02:46:24;10.70;;;6.00;;
61869;SDS011;47810;42.264;23.826;2022-08-19T02:48:55;10.20;;;5.78;;
61869;SDS011;47810;42.264;23.826;2022-08-19T02:51:28;9.15;;;5.97;;
61869;SDS011;47810;42.264;23.826;2022-08-19T02:53:57;9.40;;;5.40;;
61869;SDS011;47810;42.264;23.826;2022-08-19T02:56:25;9.32;;;5.43;;
61869;SDS011;47810;42.264;23.826;2022-08-19T02:58:54;12.98;;;6.20;;
61869;SDS011;47810;42.264;23.826;2022-08-19T03:01:23;9.50;;;5.72;;
61869;SDS011;47810;42.264;23.826;2022-08-19T03:03:51;8.98;;;5.90;;
61869;SDS011;47810;42.264;23.826;2022-08-19T03:06:18;9.68;;;5.70;;
61869;SDS011;47810;42.264;23.826;2022-08-19T03:08:44;10.60;;;6.03;;
61869;SDS011;47810;42.264;23.826;2022-08-19T03:13:45;8.85;;;5.57;;
61869;SDS011;47810;42.264;23.826;2022-08-19T03:16:12;9.30;;;5.78;;
61869;SDS011;47810;42.264;23.826;2022-08-19T03:18:39;9.50;;;5.90;;
61869;SDS011;47810;42.264;23.826;2022-08-19T03:21:05;12.70;;;6.07;;
61869;SDS011;47810;42.264;23.826;2022-08-19T03:23:31;10.43;;;6.28;;
61869;SDS011;47810;42.264;23.826;2022-08-19T03:25:59;12.52;;;6.43;;
61869;SDS011;47810;42.264;23.826;2022-08-19T03:28:30;10.32;;;6.50;;
61869;SDS011;47810;42.264;23.826;2022-08-19T03:31:01;9.30;;;6.10;;
61869;SDS011;47810;42.264;23.826;2022-08-19T03:33:32;12.63;;;5.95;;
61869;SDS011;47810;42.264;23.826;2022-08-19T03:36:08;10.68;;;5.97;;
61869;SDS011;47810;42.264;23.826;2022-08-19T03:38:40;13.20;;;6.35;;
61869;SDS011;47810;42.264;23.826;2022-08-19T03:41:12;10.27;;;6.10;;
61869;SDS011;47810;42.264;23.826;2022-08-19T03:43:42;12.85;;;5.75;;
61869;SDS011;47810;42.264;23.826;2022-08-19T03:46:10;11.45;;;6.35;;
61869;SDS011;47810;42.264;23.826;2022-08-19T03:48:39;10.65;;;6.45;;
61869;SDS011;47810;42.264;23.826;2022-08-19T03:51:21;9.35;;;6.20;;
61869;SDS011;47810;42.264;23.826;2022-08-19T03:53:53;9.50;;;6.25;;
61869;SDS011;47810;42.264;23.826;2022-08-19T03:56:22;11.88;;;6.80;;
61869;SDS011;47810;42.264;23.826;2022-08-19T03:58:50;21.05;;;7.13;;
61869;SDS011;47810;42.264;23.826;2022-08-19T04:01:17;16.35;;;7.28;;
61869;SDS011;47810;42.264;23.826;2022-08-19T04:03:45;14.43;;;7.30;;
61869;SDS011;47810;42.264;23.826;2022-08-19T04:06:23;12.20;;;6.75;;
61869;SDS011;47810;42.264;23.826;2022-08-19T04:08:52;23.25;;;7.20;;
61869;SDS011;47810;42.264;23.826;2022-08-19T04:11:24;20.80;;;7.60;;
61869;SDS011;47810;42.264;23.826;2022-08-19T04:13:52;12.32;;;7.03;;
61869;SDS011;47810;42.264;23.826;2022-08-19T04:16:24;12.13;;;7.13;;
61869;SDS011;47810;42.264;23.826;2022-08-19T04:18:54;21.58;;;6.72;;
61869;SDS011;47810;42.264;23.826;2022-08-19T04:26:33;11.98;;;6.70;;
61869;SDS011;47810;42.264;23.826;2022-08-19T04:29:05;16.13;;;7.30;;
61869;SDS011;47810;42.264;23.826;2022-08-19T04:34:15;15.80;;;8.02;;
61869;SDS011;47810;42.264;23.826;2022-08-19T04:39:15;13.43;;;7.47;;
61869;SDS011;47810;42.264;23.826;2022-08-19T04:47:00;131.43;;;12.57;;
61869;SDS011;47810;42.264;23.826;2022-08-19T04:49:28;27.10;;;7.47;;
61869;SDS011;47810;42.264;23.826;2022-08-19T04:52:02;14.50;;;6.85;;
61869;SDS011;47810;42.264;23.826;2022-08-19T04:54:36;34.25;;;9.65;;
61869;SDS011;47810;42.264;23.826;2022-08-19T04:59:55;19.00;;;10.48;;
61869;SDS011;47810;42.264;23.826;2022-08-19T05:05:53;18.52;;;9.90;;
61869;SDS011;47810;42.264;23.826;2022-08-19T05:08:25;18.60;;;10.00;;
61869;SDS011;47810;42.264;23.826;2022-08-19T05:13:27;33.70;;;10.88;;
61869;SDS011;47810;42.264;23.826;2022-08-19T05:16:00;20.83;;;11.60;;
61869;SDS011;47810;42.264;23.826;2022-08-19T05:18:27;24.67;;;11.15;;
61869;SDS011;47810;42.264;23.826;2022-08-19T05:21:13;24.40;;;11.23;;
61869;SDS011;47810;42.264;23.826;2022-08-19T05:24:17;18.65;;;9.82;;
61869;SDS011;47810;42.264;23.826;2022-08-19T05:31:47;15.70;;;8.48;;
61869;SDS011;47810;42.264;23.826;2022-08-19T05:34:25;21.73;;;8.65;;
61869;SDS011;47810;42.264;23.826;2022-08-19T05:36:53;44.45;;;10.73;;
61869;SDS011;47810;42.264;23.826;2022-08-19T05:44:46;15.55;;;8.10;;
61869;SDS011;47810;42.264;23.826;2022-08-19T05:50:10;15.55;;;7.55;;
61869;SDS011;47810;42.264;23.826;2022-08-19T05:55:48;19.23;;;8.45;;
61869;SDS011;47810;42.264;23.826;2022-08-19T06:01:19;12.35;;;7.68;;
61869;SDS011;47810;42.264;23.826;2022-08-19T06:06:27;13.18;;;7.45;;
61869;SDS011;47810;42.264;23.826;2022-08-19T06:12:19;14.80;;;7.10;;
61869;SDS011;47810;42.264;23.826;2022-08-19T06:17:28;19.55;;;7.25;;
61869;SDS011;47810;42.264;23.826;2022-08-19T06:19:58;48.58;;;8.88;;
61869;SDS011;47810;42.264;23.826;2022-08-19T06:22:44;11.65;;;6.40;;
61869;SDS011;47810;42.264;23.826;2022-08-19T06:25:13;11.77;;;6.32;;
61869;SDS011;47810;42.264;23.826;2022-08-19T06:27:54;9.30;;;6.25;;
61869;SDS011;47810;42.264;23.826;2022-08-19T06:30:27;13.77;;;6.43;;
61869;SDS011;47810;42.264;23.826;2022-08-19T06:35:38;10.27;;;5.97;;
61869;SDS011;47810;42.264;23.826;2022-08-19T06:40:38;19.98;;;6.30;;
61869;SDS011;47810;42.264;23.826;2022-08-19T06:43:03;11.40;;;6.10;;
61869;SDS011;47810;42.264;23.826;2022-08-19T06:45:30;9.35;;;6.43;;
61869;SDS011;47810;42.264;23.826;2022-08-19T06:47:56;10.18;;;6.25;;
61869;SDS011;47810;42.264;23.826;2022-08-19T06:50:24;11.88;;;6.47;;
61869;SDS011;47810;42.264;23.826;2022-08-19T06:52:51;12.02;;;6.82;;
61869;SDS011;47810;42.264;23.826;2022-08-19T06:55:19;8.52;;;6.03;;
61869;SDS011;47810;42.264;23.826;2022-08-19T06:57:45;18.52;;;8.02;;
61869;SDS011;47810;42.264;23.826;2022-08-19T07:00:11;10.15;;;6.18;;
61869;SDS011;47810;42.264;23.826;2022-08-19T07:02:49;10.95;;;6.25;;
61869;SDS011;47810;42.264;23.826;2022-08-19T07:05:18;10.27;;;5.85;;
61869;SDS011;47810;42.264;23.826;2022-08-19T07:10:15;8.95;;;5.75;;
61869;SDS011;47810;42.264;23.826;2022-08-19T07:12:45;11.32;;;6.28;;
61869;SDS011;47810;42.264;23.826;2022-08-19T07:17:41;9.85;;;6.00;;
61869;SDS011;47810;42.264;23.826;2022-08-19T07:20:09;8.60;;;6.07;;
61869;SDS011;47810;42.264;23.826;2022-08-19T07:22:44;10.25;;;5.93;;
61869;SDS011;47810;42.264;23.826;2022-08-19T07:25:11;8.63;;;6.05;;
61869;SDS011;47810;42.264;23.826;2022-08-19T07:27:40;8.32;;;5.63;;
61869;SDS011;47810;42.264;23.826;2022-08-19T07:30:06;8.32;;;5.82;;
61869;SDS011;47810;42.264;23.826;2022-08-19T07:35:13;10.48;;;5.38;;
61869;SDS011;47810;42.264;23.826;2022-08-19T07:37:45;11.55;;;5.47;;
61869;SDS011;47810;42.264;23.826;2022-08-19T07:40:13;11.65;;;6.10;;
61869;SDS011;47810;42.264;23.826;2022-08-19T07:42:39;12.30;;;5.65;;
61869;SDS011;47810;42.264;23.826;2022-08-19T07:45:05;7.80;;;5.20;;
61869;SDS011;47810;42.264;23.826;2022-08-19T07:47:31;17.17;;;6.78;;
61869;SDS011;47810;42.264;23.826;2022-08-19T07:53:41;8.20;;;5.57;;
61869;SDS011;47810;42.264;23.826;2022-08-19T07:58:52;9.25;;;5.60;;
61869;SDS011;47810;42.264;23.826;2022-08-19T08:01:22;8.43;;;5.07;;
61869;SDS011;47810;42.264;23.826;2022-08-19T08:03:52;18.95;;;6.53;;
61869;SDS011;47810;42.264;23.826;2022-08-19T08:06:38;22.08;;;5.38;;
61869;SDS011;47810;42.264;23.826;2022-08-19T08:09:36;13.63;;;5.13;;
61869;SDS011;47810;42.264;23.826;2022-08-19T08:12:19;11.23;;;4.70;;
61869;SDS011;47810;42.264;23.826;2022-08-19T08:15:11;7.53;;;4.95;;
61869;SDS011;47810;42.264;23.826;2022-08-19T08:17:45;10.02;;;4.72;;
61869;SDS011;47810;42.264;23.826;2022-08-19T08:20:12;6.75;;;4.70;;
61869;SDS011;47810;42.264;23.826;2022-08-19T08:22:42;6.50;;;4.53;;
61869;SDS011;47810;42.264;23.826;2022-08-19T08:25:27;6.45;;;4.32;;
61869;SDS011;47810;42.264;23.826;2022-08-19T08:27:54;7.60;;;4.05;;
61869;SDS011;47810;42.264;23.826;2022-08-19T08:30:23;6.13;;;4.05;;
61869;SDS011;47810;42.264;23.826;2022-08-19T08:32:52;6.70;;;4.40;;
61869;SDS011;47810;42.264;23.826;2022-08-19T08:35:20;6.53;;;4.07;;
61869;SDS011;47810;42.264;23.826;2022-08-19T08:37:53;6.63;;;4.25;;
61869;SDS011;47810;42.264;23.826;2022-08-19T08:40:28;6.68;;;4.30;;
61869;SDS011;47810;42.264;23.826;2022-08-19T08:45:30;9.43;;;4.93;;
61869;SDS011;47810;42.264;23.826;2022-08-19T08:47:58;10.10;;;4.60;;
61869;SDS011;47810;42.264;23.826;2022-08-19T08:50:31;6.85;;;4.00;;
61869;SDS011;47810;42.264;23.826;2022-08-19T08:53:05;7.70;;;4.20;;
61869;SDS011;47810;42.264;23.826;2022-08-19T08:55:34;5.93;;;3.80;;
61869;SDS011;47810;42.264;23.826;2022-08-19T08:58:03;6.78;;;3.97;;
61869;SDS011;47810;42.264;23.826;2022-08-19T09:00:35;8.77;;;3.65;;
61869;SDS011;47810;42.264;23.826;2022-08-19T09:03:09;5.80;;;3.58;;
61869;SDS011;47810;42.264;23.826;2022-08-19T09:14:03;6.25;;;4.03;;
61869;SDS011;47810;42.264;23.826;2022-08-19T09:16:45;7.95;;;4.13;;
61869;SDS011;47810;42.264;23.826;2022-08-19T09:19:14;5.75;;;4.07;;
61869;SDS011;47810;42.264;23.826;2022-08-19T09:21:45;6.80;;;3.75;;
61869;SDS011;47810;42.264;23.826;2022-08-19T09:24:11;7.10;;;4.50;;
61869;SDS011;47810;42.264;23.826;2022-08-19T09:26:38;7.18;;;3.88;;
61869;SDS011;47810;42.264;23.826;2022-08-19T09:29:03;10.60;;;4.85;;
61869;SDS011;47810;42.264;23.826;2022-08-19T09:34:01;6.00;;;3.80;;
61869;SDS011;47810;42.264;23.826;2022-08-19T09:36:31;5.50;;;3.75;;
61869;SDS011;47810;42.264;23.826;2022-08-19T09:39:03;6.80;;;3.90;;
61869;SDS011;47810;42.264;23.826;2022-08-19T09:41:31;6.95;;;3.92;;
61869;SDS011;47810;42.264;23.826;2022-08-19T09:43:57;5.93;;;3.63;;
61869;SDS011;47810;42.264;23.826;2022-08-19T09:46:25;7.30;;;4.07;;
61869;SDS011;47810;42.264;23.826;2022-08-19T09:48:52;5.43;;;3.67;;
61869;SDS011;47810;42.264;23.826;2022-08-19T09:51:21;7.45;;;4.10;;
61869;SDS011;47810;42.264;23.826;2022-08-19T09:53:50;9.40;;;3.65;;
61869;SDS011;47810;42.264;23.826;2022-08-19T09:58:50;6.05;;;4.20;;
61869;SDS011;47810;42.264;23.826;2022-08-19T10:01:24;6.10;;;3.55;;
61869;SDS011;47810;42.264;23.826;2022-08-19T10:06:34;7.20;;;3.90;;
61869;SDS011;47810;42.264;23.826;2022-08-19T10:09:01;6.28;;;3.53;;
61869;SDS011;47810;42.264;23.826;2022-08-19T10:11:32;5.55;;;3.67;;
61869;SDS011;47810;42.264;23.826;2022-08-19T10:14:07;5.85;;;3.60;;
61869;SDS011;47810;42.264;23.826;2022-08-19T10:16:34;5.28;;;3.47;;
61869;SDS011;47810;42.264;23.826;2022-08-19T10:19:05;6.85;;;3.45;;
61869;SDS011;47810;42.264;23.826;2022-08-19T10:21:33;8.63;;;4.45;;
61869;SDS011;47810;42.264;23.826;2022-08-19T10:24:01;5.82;;;3.75;;
61869;SDS011;47810;42.264;23.826;2022-08-19T10:26:32;6.68;;;3.55;;
61869;SDS011;47810;42.264;23.826;2022-08-19T10:31:27;7.95;;;4.15;;
61869;SDS011;47810;42.264;23.826;2022-08-19T10:33:57;11.52;;;3.95;;
61869;SDS011;47810;42.264;23.826;2022-08-19T10:39:06;5.95;;;4.03;;
61869;SDS011;47810;42.264;23.826;2022-08-19T10:41:36;8.05;;;3.83;;
61869;SDS011;47810;42.264;23.826;2022-08-19T10:44:07;7.32;;;4.00;;
61869;SDS011;47810;42.264;23.826;2022-08-19T10:46:39;10.45;;;4.13;;
61869;SDS011;47810;42.264;23.826;2022-08-19T10:49:07;10.75;;;4.60;;
61869;SDS011;47810;42.264;23.826;2022-08-19T10:51:34;6.80;;;3.92;;
61869;SDS011;47810;42.264;23.826;2022-08-19T10:54:21;10.45;;;4.18;;
61869;SDS011;47810;42.264;23.826;2022-08-19T10:56:51;10.60;;;4.38;;
61869;SDS011;47810;42.264;23.826;2022-08-19T10:59:22;6.50;;;3.80;;
61869;SDS011;47810;42.264;23.826;2022-08-19T11:01:53;6.47;;;4.13;;
61869;SDS011;47810;42.264;23.826;2022-08-19T11:04:21;8.18;;;4.50;;
61869;SDS011;47810;42.264;23.826;2022-08-19T11:06:48;10.00;;;4.38;;
61869;SDS011;47810;42.264;23.826;2022-08-19T11:09:20;7.32;;;3.90;;
61869;SDS011;47810;42.264;23.826;2022-08-19T11:11:50;7.15;;;4.15;;
61869;SDS011;47810;42.264;23.826;2022-08-19T11:14:18;46.47;;;6.20;;
61869;SDS011;47810;42.264;23.826;2022-08-19T11:16:46;7.70;;;4.30;;
61869;SDS011;47810;42.264;23.826;2022-08-19T11:19:31;7.15;;;3.95;;
61869;SDS011;47810;42.264;23.826;2022-08-19T11:24:29;6.90;;;4.45;;
61869;SDS011;47810;42.264;23.826;2022-08-19T11:34:45;8.20;;;4.32;;
61869;SDS011;47810;42.264;23.826;2022-08-19T11:40:14;5.55;;;3.83;;
61869;SDS011;47810;42.264;23.826;2022-08-19T11:42:49;7.13;;;4.05;;
61869;SDS011;47810;42.264;23.826;2022-08-19T11:48:13;8.18;;;4.30;;
61869;SDS011;47810;42.264;23.826;2022-08-19T11:50:50;9.88;;;4.00;;
61869;SDS011;47810;42.264;23.826;2022-08-19T11:53:21;9.13;;;3.70;;
61869;SDS011;47810;42.264;23.826;2022-08-19T11:56:06;7.15;;;3.58;;
61869;SDS011;47810;42.264;23.826;2022-08-19T11:58:34;7.22;;;3.85;;
61869;SDS011;47810;42.264;23.826;2022-08-19T12:01:35;7.40;;;4.32;;
61869;SDS011;47810;42.264;23.826;2022-08-19T12:04:06;9.25;;;4.07;;
61869;SDS011;47810;42.264;23.826;2022-08-19T12:06:39;9.80;;;3.80;;
61869;SDS011;47810;42.264;23.826;2022-08-19T12:09:19;7.82;;;4.05;;
61869;SDS011;47810;42.264;23.826;2022-08-19T12:11:47;7.47;;;4.13;;
61869;SDS011;47810;42.264;23.826;2022-08-19T12:14:15;11.65;;;4.05;;
61869;SDS011;47810;42.264;23.826;2022-08-19T12:16:43;7.53;;;4.22;;
61869;SDS011;47810;42.264;23.826;2022-08-19T12:19:23;16.63;;;4.53;;
61869;SDS011;47810;42.264;23.826;2022-08-19T12:22:01;20.35;;;4.35;;
61869;SDS011;47810;42.264;23.826;2022-08-19T12:26:58;9.05;;;3.85;;
61869;SDS011;47810;42.264;23.826;2022-08-19T12:29:28;10.75;;;3.88;;
61869;SDS011;47810;42.264;23.826;2022-08-19T12:34:42;4.82;;;3.50;;
61869;SDS011;47810;42.264;23.826;2022-08-19T12:37:10;11.90;;;4.05;;
61869;SDS011;47810;42.264;23.826;2022-08-19T12:39:37;6.85;;;4.25;;
61869;SDS011;47810;42.264;23.826;2022-08-19T12:42:12;5.53;;;3.80;;
61869;SDS011;47810;42.264;23.826;2022-08-19T12:44:47;7.40;;;3.97;;
61869;SDS011;47810;42.264;23.826;2022-08-19T12:47:15;7.60;;;4.05;;
61869;SDS011;47810;42.264;23.826;2022-08-19T12:49:45;6.45;;;3.92;;
61869;SDS011;47810;42.264;23.826;2022-08-19T12:52:17;6.93;;;3.40;;
61869;SDS011;47810;42.264;23.826;2022-08-19T12:54:47;8.85;;;3.60;;
61869;SDS011;47810;42.264;23.826;2022-08-19T13:00:10;14.32;;;3.83;;
61869;SDS011;47810;42.264;23.826;2022-08-19T13:02:43;20.33;;;4.10;;
61869;SDS011;47810;42.264;23.826;2022-08-19T13:05:12;10.68;;;3.80;;
61869;SDS011;47810;42.264;23.826;2022-08-19T13:10:50;7.07;;;3.90;;
61869;SDS011;47810;42.264;23.826;2022-08-19T13:13:26;8.32;;;4.07;;
61869;SDS011;47810;42.264;23.826;2022-08-19T13:16:27;8.32;;;3.58;;
61869;SDS011;47810;42.264;23.826;2022-08-19T13:18:56;7.93;;;3.80;;
61869;SDS011;47810;42.264;23.826;2022-08-19T13:21:40;11.35;;;4.35;;
61869;SDS011;47810;42.264;23.826;2022-08-19T13:24:11;7.00;;;4.10;;
61869;SDS011;47810;42.264;23.826;2022-08-19T13:29:07;6.75;;;4.32;;
61869;SDS011;47810;42.264;23.826;2022-08-19T13:32:45;11.18;;;4.10;;
61869;SDS011;47810;42.264;23.826;2022-08-19T13:37:53;13.80;;;4.20;;
61869;SDS011;47810;42.264;23.826;2022-08-19T13:40:23;7.25;;;4.07;;
61869;SDS011;47810;42.264;23.826;2022-08-19T13:43:04;8.70;;;4.13;;
61869;SDS011;47810;42.264;23.826;2022-08-19T13:45:40;9.63;;;4.20;;
61869;SDS011;47810;42.264;23.826;2022-08-19T13:48:14;10.52;;;4.38;;
61869;SDS011;47810;42.264;23.826;2022-08-19T13:50:46;6.40;;;4.03;;
61869;SDS011;47810;42.264;23.826;2022-08-19T13:53:13;7.10;;;4.22;;
61869;SDS011;47810;42.264;23.826;2022-08-19T13:55:42;6.20;;;4.13;;
61869;SDS011;47810;42.264;23.826;2022-08-19T13:58:10;7.03;;;3.85;;
61869;SDS011;47810;42.264;23.826;2022-08-19T14:00:43;6.82;;;4.07;;
61869;SDS011;47810;42.264;23.826;2022-08-19T14:03:17;7.73;;;4.10;;
61869;SDS011;47810;42.264;23.826;2022-08-19T14:05:47;83.75;;;8.32;;
61869;SDS011;47810;42.264;23.826;2022-08-19T14:08:18;18.00;;;5.05;;
61869;SDS011;47810;42.264;23.826;2022-08-19T14:10:45;7.47;;;4.20;;
61869;SDS011;47810;42.264;23.826;2022-08-19T14:13:13;8.65;;;3.95;;
61869;SDS011;47810;42.264;23.826;2022-08-19T14:15:43;10.95;;;4.30;;
61869;SDS011;47810;42.264;23.826;2022-08-19T14:18:11;6.68;;;4.00;;
61869;SDS011;47810;42.264;23.826;2022-08-19T14:23:54;6.00;;;3.95;;
61869;SDS011;47810;42.264;23.826;2022-08-19T14:26:34;9.88;;;4.40;;
61869;SDS011;47810;42.264;23.826;2022-08-19T14:29:18;5.45;;;4.00;;
61869;SDS011;47810;42.264;23.826;2022-08-19T14:32:13;5.85;;;4.25;;
61869;SDS011;47810;42.264;23.826;2022-08-19T14:35:17;5.90;;;4.45;;
61869;SDS011;47810;42.264;23.826;2022-08-19T14:38:06;7.05;;;4.43;;
61869;SDS011;47810;42.264;23.826;2022-08-19T14:58:14;8.35;;;4.25;;
61869;SDS011;47810;42.264;23.826;2022-08-19T15:00:54;14.77;;;4.50;;
61869;SDS011;47810;42.264;23.826;2022-08-19T15:03:32;7.13;;;3.92;;
61869;SDS011;47810;42.264;23.826;2022-08-19T15:06:05;8.48;;;4.10;;
61869;SDS011;47810;42.264;23.826;2022-08-19T15:08:37;7.30;;;4.28;;
61869;SDS011;47810;42.264;23.826;2022-08-19T15:11:07;7.75;;;4.65;;
61869;SDS011;47810;42.264;23.826;2022-08-19T15:14:01;8.15;;;4.15;;
61869;SDS011;47810;42.264;23.826;2022-08-19T15:16:28;16.60;;;4.93;;
61869;SDS011;47810;42.264;23.826;2022-08-19T15:18:59;6.10;;;4.47;;
61869;SDS011;47810;42.264;23.826;2022-08-19T15:21:25;8.15;;;4.22;;
61869;SDS011;47810;42.264;23.826;2022-08-19T15:24:14;8.20;;;4.45;;
61869;SDS011;47810;42.264;23.826;2022-08-19T15:27:06;8.38;;;5.00;;
61869;SDS011;47810;42.264;23.826;2022-08-19T15:30:03;10.32;;;5.20;;
61869;SDS011;47810;42.264;23.826;2022-08-19T15:33:23;13.00;;;5.68;;
61869;SDS011;47810;42.264;23.826;2022-08-19T15:36:23;6.77;;;4.43;;
61869;SDS011;47810;42.264;23.826;2022-08-19T15:38:54;16.65;;;5.40;;
61869;SDS011;47810;42.264;23.826;2022-08-19T15:44:47;14.55;;;4.68;;
61869;SDS011;47810;42.264;23.826;2022-08-19T15:47:18;10.73;;;4.70;;
61869;SDS011;47810;42.264;23.826;2022-08-19T15:50:09;10.25;;;5.00;;
61869;SDS011;47810;42.264;23.826;2022-08-19T15:52:55;15.50;;;4.50;;
61869;SDS011;47810;42.264;23.826;2022-08-19T15:59:00;8.27;;;4.47;;
61869;SDS011;47810;42.264;23.826;2022-08-19T16:07:56;8.15;;;4.78;;
61869;SDS011;47810;42.264;23.826;2022-08-19T16:10:26;7.15;;;4.30;;
61869;SDS011;47810;42.264;23.826;2022-08-19T16:12:53;8.65;;;4.40;;
61869;SDS011;47810;42.264;23.826;2022-08-19T16:15:23;8.85;;;4.47;;
61869;SDS011;47810;42.264;23.826;2022-08-19T16:18:01;6.70;;;4.07;;
61869;SDS011;47810;42.264;23.826;2022-08-19T16:20:29;7.95;;;4.57;;
61869;SDS011;47810;42.264;23.826;2022-08-19T16:23:00;7.85;;;4.53;;
61869;SDS011;47810;42.264;23.826;2022-08-19T16:25:29;6.32;;;4.22;;
61869;SDS011;47810;42.264;23.826;2022-08-19T16:27:55;6.82;;;4.15;;
61869;SDS011;47810;42.264;23.826;2022-08-19T16:30:23;9.82;;;4.72;;
61869;SDS011;47810;42.264;23.826;2022-08-19T16:32:51;6.78;;;4.30;;
61869;SDS011;47810;42.264;23.826;2022-08-19T16:35:18;7.85;;;4.50;;
61869;SDS011;47810;42.264;23.826;2022-08-19T16:37:44;16.38;;;7.25;;
61869;SDS011;47810;42.264;23.826;2022-08-19T16:40:11;23.52;;;11.65;;
61869;SDS011;47810;42.264;23.826;2022-08-19T16:42:45;7.85;;;4.85;;
61869;SDS011;47810;42.264;23.826;2022-08-19T16:45:11;8.48;;;4.70;;
61869;SDS011;47810;42.264;23.826;2022-08-19T16:47:43;11.52;;;4.32;;
61869;SDS011;47810;42.264;23.826;2022-08-19T16:50:09;10.38;;;5.25;;
61869;SDS011;47810;42.264;23.826;2022-08-19T16:52:36;8.70;;;4.60;;
61869;SDS011;47810;42.264;23.826;2022-08-19T16:57:37;10.57;;;4.93;;
61869;SDS011;47810;42.264;23.826;2022-08-19T17:00:04;12.32;;;4.95;;
61869;SDS011;47810;42.264;23.826;2022-08-19T17:02:40;13.15;;;5.05;;
61869;SDS011;47810;42.264;23.826;2022-08-19T17:05:14;9.65;;;4.80;;
61869;SDS011;47810;42.264;23.826;2022-08-19T17:07:46;11.02;;;4.50;;
61869;SDS011;47810;42.264;23.826;2022-08-19T17:10:26;6.88;;;4.43;;
61869;SDS011;47810;42.264;23.826;2022-08-19T17:15:40;11.38;;;4.35;;
61869;SDS011;47810;42.264;23.826;2022-08-19T17:18:08;6.22;;;4.47;;
61869;SDS011;47810;42.264;23.826;2022-08-19T17:20:36;11.20;;;4.40;;
61869;SDS011;47810;42.264;23.826;2022-08-19T17:25:36;8.57;;;4.40;;
61869;SDS011;47810;42.264;23.826;2022-08-19T17:28:23;10.85;;;4.80;;
61869;SDS011;47810;42.264;23.826;2022-08-19T17:31:02;10.82;;;4.97;;
61869;SDS011;47810;42.264;23.826;2022-08-19T17:35:57;8.43;;;4.82;;
61869;SDS011;47810;42.264;23.826;2022-08-19T17:38:22;11.88;;;5.22;;
61869;SDS011;47810;42.264;23.826;2022-08-19T17:40:49;10.82;;;4.90;;
61869;SDS011;47810;42.264;23.826;2022-08-19T17:45:45;11.25;;;4.60;;
61869;SDS011;47810;42.264;23.826;2022-08-19T17:48:12;8.32;;;4.80;;
61869;SDS011;47810;42.264;23.826;2022-08-19T17:50:38;6.03;;;4.20;;
61869;SDS011;47810;42.264;23.826;2022-08-19T17:53:05;9.23;;;4.82;;
61869;SDS011;47810;42.264;23.826;2022-08-19T17:55:31;8.30;;;5.00;;
61869;SDS011;47810;42.264;23.826;2022-08-19T17:57:59;7.13;;;4.63;;
61869;SDS011;47810;42.264;23.826;2022-08-19T18:00:29;7.97;;;4.93;;
61869;SDS011;47810;42.264;23.826;2022-08-19T18:02:58;8.07;;;4.72;;
61869;SDS011;47810;42.264;23.826;2022-08-19T18:05:29;10.38;;;5.57;;
61869;SDS011;47810;42.264;23.826;2022-08-19T18:08:15;9.77;;;4.70;;
61869;SDS011;47810;42.264;23.826;2022-08-19T18:10:41;10.55;;;4.70;;
61869;SDS011;47810;42.264;23.826;2022-08-19T18:13:13;8.45;;;4.35;;
61869;SDS011;47810;42.264;23.826;2022-08-19T18:15:43;8.98;;;4.50;;
61869;SDS011;47810;42.264;23.826;2022-08-19T18:20:39;9.50;;;4.30;;